createdAt,value
2023-01-21T00:02:22.004Z,-5.00
2023-01-21T00:04:50.308Z,-5.00
2023-01-21T00:07:18.716Z,-5.10
2023-01-21T00:09:46.918Z,-5.20
2023-01-21T00:12:16.373Z,-5.20
2023-01-21T00:14:47.300Z,-5.50
2023-01-21T00:17:16.592Z,-5.40
2023-01-21T00:19:44.788Z,-5.50
2023-01-21T00:22:13.355Z,-5.40
2023-01-21T00:24:41.493Z,-5.50
2023-01-21T00:27:10.366Z,-5.60
2023-01-21T00:29:38.661Z,-5.60
2023-01-21T00:32:08.318Z,-5.40
2023-01-21T00:34:36.766Z,-5.60
2023-01-21T00:37:05.791Z,-5.50
2023-01-21T00:39:34.026Z,-5.40
2023-01-21T00:42:04.460Z,-5.50
2023-01-21T00:44:33.545Z,-5.40
2023-01-21T00:47:01.742Z,-5.50
2023-01-21T00:49:31.392Z,-5.60
2023-01-21T00:51:59.920Z,-5.70
2023-01-21T00:54:28.202Z,-5.70
2023-01-21T00:56:56.672Z,-5.70
2023-01-21T00:59:27.242Z,-5.80
2023-01-21T01:01:56.016Z,-5.70
2023-01-21T01:04:24.467Z,-5.70
2023-01-21T01:06:54.078Z,-5.70
2023-01-21T01:09:22.270Z,-5.60
2023-01-21T01:11:50.938Z,-5.70
2023-01-21T01:14:19.841Z,-5.70
2023-01-21T01:16:48.124Z,-5.60
2023-01-21T01:19:17.988Z,-5.70
2023-01-21T01:22:24.945Z,-5.80
2023-01-21T01:24:54.017Z,-5.90
2023-01-21T01:27:22.421Z,-5.60
2023-01-21T01:29:50.593Z,-5.70
2023-01-21T01:32:18.740Z,-5.50
2023-01-21T01:34:47.736Z,-5.60
2023-01-21T01:37:17.463Z,-5.70
2023-01-21T01:39:45.688Z,-5.60
2023-01-21T01:42:15.744Z,-5.60
2023-01-21T01:45:01.595Z,-5.50
2023-01-21T01:47:34.575Z,-5.60
2023-01-21T01:50:05.838Z,-5.70
2023-01-21T01:52:35.803Z,-5.50
2023-01-21T01:55:05.781Z,-5.50
2023-01-21T01:57:37.353Z,-5.30
2023-01-21T02:00:08.706Z,-5.20
2023-01-21T02:02:39.509Z,-5.20
2023-01-21T02:05:10.551Z,-5.10
2023-01-21T02:07:44.693Z,-5.10
2023-01-21T02:10:16.131Z,-5.10
2023-01-21T02:12:46.092Z,-5.00
2023-01-21T02:15:14.461Z,-5.00
2023-01-21T02:17:56.793Z,-5.20
2023-01-21T02:20:54.637Z,-5.30
2023-01-21T02:23:33.918Z,-5.50
2023-01-21T02:26:35.695Z,-5.60
2023-01-21T02:29:39.743Z,-5.50
2023-01-21T02:32:37.694Z,-5.50
2023-01-21T02:35:17.576Z,-5.60
2023-01-21T02:37:52.645Z,-5.60
2023-01-21T02:40:27.227Z,-5.60
2023-01-21T02:43:04.161Z,-5.70
2023-01-21T02:45:39.854Z,-5.90
2023-01-21T02:48:13.081Z,-5.70
2023-01-21T02:50:46.673Z,-5.70
2023-01-21T02:53:26.731Z,-5.60
2023-01-21T02:55:55.595Z,-5.50
2023-01-21T02:58:29.191Z,-5.60
2023-01-21T03:01:07.380Z,-5.50
2023-01-21T03:03:57.013Z,-5.50
2023-01-21T03:06:42.284Z,-5.50
2023-01-21T03:09:22.800Z,-5.60
2023-01-21T03:12:01.153Z,-5.60
2023-01-21T03:14:52.108Z,-5.60
2023-01-21T03:17:27.963Z,-5.60
2023-01-21T03:20:03.417Z,-5.40
2023-01-21T03:22:36.249Z,-5.50
2023-01-21T03:25:06.446Z,-5.40
2023-01-21T03:27:37.575Z,-5.50
2023-01-21T03:30:12.606Z,-5.20
2023-01-21T03:32:42.748Z,-5.10
2023-01-21T03:35:14.817Z,-5.00
2023-01-21T03:37:48.802Z,-5.00
2023-01-21T03:40:22.946Z,-4.90
2023-01-21T03:42:53.655Z,-4.90
2023-01-21T03:45:31.432Z,-4.90
2023-01-21T03:48:07.046Z,-4.70
2023-01-21T03:50:39.447Z,-4.70
2023-01-21T03:53:09.497Z,-4.60
2023-01-21T03:55:38.210Z,-4.50
2023-01-21T03:58:15.394Z,-4.50
2023-01-21T04:00:43.729Z,-4.40
2023-01-21T04:03:12.078Z,-4.40
2023-01-21T04:05:40.248Z,-4.40
2023-01-21T04:08:09.860Z,-4.10
2023-01-21T04:10:38.094Z,-4.20
2023-01-21T04:13:06.621Z,-4.40
2023-01-21T04:15:35.057Z,-4.40
2023-01-21T04:18:03.909Z,-4.30
2023-01-21T04:20:32.082Z,-4.20
2023-01-21T04:23:00.258Z,-4.10
2023-01-21T04:25:30.144Z,-4.10
2023-01-21T04:27:58.387Z,-4.10
2023-01-21T04:30:26.614Z,-4.20
2023-01-21T04:32:55.366Z,-4.20
2023-01-21T04:35:24.095Z,-4.20
2023-01-21T04:37:52.853Z,-4.00
2023-01-21T04:40:21.002Z,-4.00
2023-01-21T04:42:50.539Z,-3.80
2023-01-21T04:45:18.735Z,-3.80
2023-01-21T04:47:47.881Z,-3.70
2023-01-21T04:50:17.067Z,-3.70
2023-01-21T04:52:45.500Z,-3.70
2023-01-21T04:55:14.364Z,-3.60
2023-01-21T04:57:42.971Z,-3.50
2023-01-21T05:00:14.156Z,-3.40
2023-01-21T05:02:42.709Z,-3.30
2023-01-21T05:05:11.368Z,-3.30
2023-01-21T05:07:45.687Z,-3.30
2023-01-21T05:10:17.896Z,-3.20
2023-01-21T05:12:46.392Z,-3.20
2023-01-21T05:15:16.502Z,-3.10
2023-01-21T05:17:44.634Z,-3.00
2023-01-21T05:20:14.288Z,-2.90
2023-01-21T05:22:42.726Z,-2.80
2023-01-21T05:25:11.507Z,-2.80
2023-01-21T05:27:41.947Z,-2.70
2023-01-21T05:30:11.505Z,-2.80
2023-01-21T05:32:41.918Z,-2.70
2023-01-21T05:35:13.897Z,-2.70
2023-01-21T05:37:42.471Z,-2.70
2023-01-21T05:40:12.467Z,-2.60
2023-01-21T05:42:45.087Z,-2.60
2023-01-21T05:45:13.386Z,-2.60
2023-01-21T05:47:44.071Z,-2.50
2023-01-21T05:50:13.489Z,-2.50
2023-01-21T05:52:41.793Z,-2.50
2023-01-21T05:55:10.829Z,-2.50
2023-01-21T05:57:39.099Z,-2.50
2023-01-21T06:00:08.856Z,-2.50
2023-01-21T06:02:37.165Z,-2.50
2023-01-21T06:05:08.114Z,-2.50
2023-01-21T06:07:36.381Z,-2.40
2023-01-21T06:10:06.188Z,-2.40
2023-01-21T06:12:34.566Z,-2.40
2023-01-21T06:15:02.974Z,-2.40
2023-01-21T06:17:31.507Z,-2.30
2023-01-21T06:20:00.243Z,-2.40
2023-01-21T06:22:30.322Z,-2.40
2023-01-21T06:24:58.966Z,-2.50
2023-01-21T06:27:27.183Z,-2.40
2023-01-21T06:29:55.721Z,-2.40
2023-01-21T06:32:24.225Z,-2.50
2023-01-21T06:34:52.442Z,-2.40
2023-01-21T06:37:20.641Z,-2.30
2023-01-21T06:39:50.635Z,-2.40
2023-01-21T06:42:19.534Z,-2.40
2023-01-21T06:44:47.707Z,-2.40
2023-01-21T06:47:16.737Z,-2.30
2023-01-21T06:49:48.199Z,-2.40
2023-01-21T06:52:16.661Z,-2.30
2023-01-21T06:54:45.040Z,-2.30
2023-01-21T06:57:15.002Z,-2.30
2023-01-21T06:59:43.223Z,-2.30
2023-01-21T07:02:13.577Z,-2.30
2023-01-21T07:04:42.343Z,-2.20
2023-01-21T07:07:11.305Z,-2.30
2023-01-21T07:09:39.490Z,-2.30
2023-01-21T07:12:07.933Z,-2.20
2023-01-21T07:14:37.663Z,-2.20
2023-01-21T07:17:06.060Z,-2.20
2023-01-21T07:19:34.225Z,-2.20
2023-01-21T07:22:05.587Z,-2.20
2023-01-21T07:24:33.806Z,-2.20
2023-01-21T07:27:02.015Z,-2.20
2023-01-21T07:29:30.436Z,-2.20
2023-01-21T07:32:00.210Z,-2.10
2023-01-21T07:34:28.820Z,-2.10
2023-01-21T07:36:57.341Z,-2.10
2023-01-21T07:39:26.463Z,-2.10
2023-01-21T07:41:55.017Z,-2.10
2023-01-21T07:44:24.388Z,-2.10
2023-01-21T07:46:53.421Z,-2.00
2023-01-21T07:49:23.019Z,-2.00
2023-01-21T07:51:51.546Z,-2.00
2023-01-21T07:54:20.340Z,-2.00
2023-01-21T07:56:48.540Z,-2.00
2023-01-21T07:59:17.415Z,-2.00
2023-01-21T08:01:46.347Z,-1.90
2023-01-21T08:04:14.634Z,-1.90
2023-01-21T08:06:44.508Z,-2.00
2023-01-21T08:09:15.945Z,-1.90
2023-01-21T08:11:45.282Z,-1.90
2023-01-21T08:14:14.296Z,-1.80
2023-01-21T08:16:43.062Z,-1.80
2023-01-21T08:19:13.790Z,-1.80
2023-01-21T08:21:46.357Z,-1.80
2023-01-21T08:24:15.503Z,-1.80
2023-01-21T08:26:43.833Z,-1.80
2023-01-21T08:29:12.162Z,-1.80
2023-01-21T08:31:40.857Z,-1.80
2023-01-21T08:34:09.200Z,-1.70
2023-01-21T08:36:38.573Z,-1.70
2023-01-21T08:39:09.861Z,-1.70
2023-01-21T08:41:40.501Z,-1.70
2023-01-21T08:44:08.964Z,-1.70
2023-01-21T08:46:37.341Z,-1.70
2023-01-21T08:49:06.800Z,-1.70
2023-01-21T08:51:35.018Z,-1.70
2023-01-21T08:54:04.567Z,-1.70
2023-01-21T08:56:35.123Z,-1.70
2023-01-21T08:59:03.673Z,-1.70
2023-01-21T09:01:36.229Z,-1.80
2023-01-21T09:04:05.040Z,-1.80
2023-01-21T09:06:33.881Z,-1.80
2023-01-21T09:09:02.298Z,-1.70
2023-01-21T09:11:32.037Z,-1.80
2023-01-21T09:14:04.005Z,-1.80
2023-01-21T09:16:32.934Z,-1.80
2023-01-21T09:19:02.195Z,-1.80
2023-01-21T09:21:30.673Z,-1.80
2023-01-21T09:23:59.819Z,-1.80
2023-01-21T09:26:28.566Z,-1.80
2023-01-21T09:28:59.947Z,-1.70
2023-01-21T09:31:31.813Z,-1.80
2023-01-21T09:34:02.288Z,-1.80
2023-01-21T09:36:33.586Z,-1.80
2023-01-21T09:39:02.135Z,-1.70
2023-01-21T09:41:32.077Z,-1.80
2023-01-21T09:44:06.338Z,-1.70
2023-01-21T09:46:42.729Z,-1.70
2023-01-21T09:49:16.065Z,-1.80
2023-01-21T09:51:52.522Z,-1.80
2023-01-21T09:54:27.527Z,-1.80
2023-01-21T09:57:32.531Z,-1.70
2023-01-21T10:00:26.465Z,-1.50
2023-01-21T10:03:03.439Z,-1.50
2023-01-21T10:05:48.939Z,-1.30
2023-01-21T10:08:32.278Z,-1.40
2023-01-21T10:11:22.464Z,-1.50
2023-01-21T10:14:06.632Z,-1.50
2023-01-21T10:16:50.374Z,-1.40
2023-01-21T10:19:30.348Z,-1.40
2023-01-21T10:22:11.896Z,-1.40
2023-01-21T10:24:46.402Z,-1.30
2023-01-21T10:27:19.547Z,-1.30
2023-01-21T10:29:52.833Z,-1.30
2023-01-21T10:32:26.225Z,-1.20
2023-01-21T10:34:57.955Z,-1.30
2023-01-21T10:37:34.313Z,-1.20
2023-01-21T10:40:17.688Z,-1.10
2023-01-21T10:43:03.478Z,-1.00
2023-01-21T10:45:41.527Z,-0.90
2023-01-21T10:48:17.039Z,-0.80
2023-01-21T10:50:56.613Z,-0.80
2023-01-21T10:53:32.209Z,-0.80
2023-01-21T10:56:13.685Z,-0.60
2023-01-21T10:58:47.486Z,-0.50
2023-01-21T11:01:22.984Z,-0.50
2023-01-21T11:03:56.682Z,-0.70
2023-01-21T11:06:30.935Z,-0.70
2023-01-21T11:09:03.134Z,-0.70
2023-01-21T11:11:35.499Z,-0.60
2023-01-21T11:14:04.367Z,-0.70
2023-01-21T11:16:37.100Z,-0.70
2023-01-21T11:19:08.270Z,-0.60
2023-01-21T11:21:40.047Z,-0.50
2023-01-21T11:24:22.195Z,-0.50
2023-01-21T11:26:52.158Z,-0.50
2023-01-21T11:29:23.153Z,-0.50
2023-01-21T11:32:01.040Z,-0.40
2023-01-21T11:34:29.865Z,-0.50
2023-01-21T11:37:02.631Z,-0.60
2023-01-21T11:39:33.105Z,-0.40
2023-01-21T11:42:07.400Z,-0.50
2023-01-21T11:44:36.427Z,-0.40
2023-01-21T11:47:04.697Z,-0.40
2023-01-21T11:49:34.022Z,-0.30
2023-01-21T11:52:23.282Z,-0.20
2023-01-21T11:54:51.470Z,-0.10
2023-01-21T11:57:27.937Z,-0.20
2023-01-21T12:00:00.487Z,-0.20
2023-01-21T12:02:32.330Z,-0.10
2023-01-21T12:05:04.657Z,0.00
2023-01-21T12:07:40.560Z,0.00
2023-01-21T12:10:24.188Z,0.00
2023-01-21T12:13:04.173Z,-0.10
2023-01-21T12:15:49.734Z,-0.10
2023-01-21T12:18:28.967Z,-0.10
2023-01-21T12:21:05.616Z,0.00
2023-01-21T12:23:50.578Z,0.10
2023-01-21T12:26:31.620Z,0.00
2023-01-21T12:29:22.515Z,-0.10
2023-01-21T12:31:57.815Z,-0.10
2023-01-21T12:34:33.301Z,-0.10
2023-01-21T12:37:06.223Z,-0.20
2023-01-21T12:39:38.773Z,-0.20
2023-01-21T12:42:12.954Z,-0.20
2023-01-21T12:44:46.241Z,-0.20
2023-01-21T12:47:26.228Z,-0.20
2023-01-21T12:50:24.902Z,-0.20
2023-01-21T12:53:06.858Z,-0.10
2023-01-21T12:55:55.784Z,-0.30
2023-01-21T12:58:37.491Z,-0.30
2023-01-21T13:01:10.638Z,-0.30
2023-01-21T13:03:51.571Z,-0.20
2023-01-21T13:06:42.523Z,-0.20
2023-01-21T13:09:23.060Z,-0.20
2023-01-21T13:11:55.807Z,-0.30
2023-01-21T13:14:29.432Z,-0.20
2023-01-21T13:17:01.547Z,-0.20
2023-01-21T13:19:30.603Z,-0.30
2023-01-21T13:22:04.539Z,-0.30
2023-01-21T13:24:44.313Z,-0.10
2023-01-21T13:27:21.894Z,-0.10
2023-01-21T13:29:59.267Z,-0.10
2023-01-21T13:32:38.997Z,-0.10
2023-01-21T13:35:24.191Z,-0.10
2023-01-21T13:38:01.753Z,-0.10
2023-01-21T13:40:39.820Z,0.10
2023-01-21T13:43:22.180Z,0.00
2023-01-21T13:46:00.958Z,-0.10
2023-01-21T13:48:46.074Z,0.00
2023-01-21T13:51:26.035Z,0.00
2023-01-21T13:54:19.288Z,-0.10
2023-01-21T13:57:08.754Z,0.00
2023-01-21T13:59:43.308Z,-0.10
2023-01-21T14:02:19.514Z,-0.10
2023-01-21T14:04:53.962Z,0.00
2023-01-21T14:07:27.178Z,-0.10
2023-01-21T14:10:01.691Z,-0.10
2023-01-21T14:12:49.886Z,0.10
2023-01-21T14:15:35.846Z,0.20
2023-01-21T14:18:34.093Z,0.20
2023-01-21T14:21:30.255Z,0.20
2023-01-21T14:24:12.638Z,0.20
2023-01-21T14:26:52.564Z,0.10
2023-01-21T14:29:30.913Z,0.10
2023-01-21T14:32:10.787Z,0.00
2023-01-21T14:34:50.799Z,0.10
2023-01-21T14:37:32.444Z,0.10
2023-01-21T14:40:12.901Z,0.10
2023-01-21T14:42:43.447Z,0.00
2023-01-21T14:45:13.064Z,0.10
2023-01-21T14:47:45.689Z,0.00
2023-01-21T14:50:47.860Z,-0.10
2023-01-21T14:53:22.962Z,0.00
2023-01-21T14:56:09.611Z,-0.10
2023-01-21T14:58:39.488Z,-0.10
2023-01-21T15:01:08.254Z,-0.20
2023-01-21T15:03:50.125Z,-0.10
2023-01-21T15:06:22.940Z,-0.10
2023-01-21T15:08:54.485Z,-0.10
2023-01-21T15:11:29.183Z,-0.10
2023-01-21T15:14:07.479Z,0.00
2023-01-21T15:16:38.544Z,-0.10
2023-01-21T15:19:30.937Z,-0.10
2023-01-21T15:22:21.666Z,-0.10
2023-01-21T15:25:04.801Z,-0.10
2023-01-21T15:27:33.212Z,-0.10
2023-01-21T15:30:27.674Z,-0.20
2023-01-21T15:32:57.316Z,-0.10
2023-01-21T15:35:32.379Z,-0.20
2023-01-21T15:38:04.696Z,-0.20
2023-01-21T15:40:40.551Z,-0.20
2023-01-21T15:43:19.274Z,-0.20
2023-01-21T15:45:56.563Z,-0.20
2023-01-21T15:48:54.487Z,-0.20
2023-01-21T15:51:34.029Z,-0.30
2023-01-21T15:54:15.757Z,-0.30
2023-01-21T15:56:57.432Z,-0.30
2023-01-21T15:59:56.974Z,-0.30
2023-01-21T16:02:32.601Z,-0.30
2023-01-21T16:05:26.711Z,-0.30
2023-01-21T16:08:06.462Z,-0.30
2023-01-21T16:10:42.310Z,-0.30
2023-01-21T16:13:17.446Z,-0.40
2023-01-21T16:15:57.748Z,-0.40
2023-01-21T16:18:33.202Z,-0.40
2023-01-21T16:21:05.433Z,-0.40
2023-01-21T16:23:39.199Z,-0.40
2023-01-21T16:26:07.560Z,-0.40
2023-01-21T16:28:43.442Z,-0.40
2023-01-21T16:31:12.832Z,-0.40
2023-01-21T16:33:41.437Z,-0.40
2023-01-21T16:36:14.199Z,-0.50
2023-01-21T16:38:47.007Z,-0.50
2023-01-21T16:41:24.867Z,-0.50
2023-01-21T16:43:56.114Z,-0.50
2023-01-21T16:46:27.061Z,-0.50
2023-01-21T16:48:58.403Z,-0.50
2023-01-21T16:51:32.479Z,-0.40
2023-01-21T16:57:41.720Z,-0.30
2023-01-21T17:00:28.268Z,-0.30
2023-01-21T17:02:58.199Z,-0.20
2023-01-21T17:05:31.704Z,-0.30
2023-01-21T17:08:05.505Z,-0.30
2023-01-21T17:10:39.141Z,-0.20
2023-01-21T17:13:17.977Z,-0.20
2023-01-21T17:15:57.377Z,-0.20
2023-01-21T17:18:29.585Z,-0.10
2023-01-21T17:21:05.986Z,-0.10
2023-01-21T17:23:40.378Z,0.00
2023-01-21T17:26:16.314Z,0.00
2023-01-21T17:28:53.617Z,0.00
2023-01-21T17:31:30.130Z,0.00
2023-01-21T17:34:07.171Z,0.00
2023-01-21T17:36:38.716Z,0.00
2023-01-21T17:39:09.714Z,0.00
2023-01-21T17:41:41.078Z,0.00
2023-01-21T17:44:18.849Z,0.00
2023-01-21T17:46:48.601Z,0.00
2023-01-21T17:49:28.518Z,0.00
2023-01-21T17:51:57.497Z,0.00
2023-01-21T17:54:28.737Z,0.00
2023-01-21T17:56:59.001Z,0.00
2023-01-21T17:59:38.354Z,0.00
2023-01-21T18:02:11.702Z,0.00
2023-01-21T18:04:41.267Z,0.00
2023-01-21T18:07:20.049Z,0.00
2023-01-21T18:09:48.670Z,0.10
2023-01-21T18:12:33.194Z,0.00
2023-01-21T18:15:04.452Z,0.00
2023-01-21T18:17:33.216Z,0.10
2023-01-21T18:20:01.867Z,0.10
2023-01-21T18:22:31.892Z,0.10
2023-01-21T18:25:03.219Z,0.20
2023-01-21T18:27:32.207Z,0.20
2023-01-21T18:30:01.906Z,0.10
2023-01-21T18:32:30.249Z,0.10
2023-01-21T18:35:32.671Z,0.10
2023-01-21T18:38:02.667Z,0.20
2023-01-21T18:40:31.253Z,0.30
2023-01-21T18:43:06.068Z,0.30
2023-01-21T18:45:36.055Z,0.20
2023-01-21T18:48:19.257Z,0.30
2023-01-21T18:50:47.820Z,0.40
2023-01-21T18:53:16.187Z,0.40
2023-01-21T18:55:47.784Z,0.40
2023-01-21T18:58:16.214Z,0.40
2023-01-21T19:00:47.547Z,0.30
2023-01-21T19:03:16.663Z,0.30
2023-01-21T19:05:52.525Z,0.20
2023-01-21T19:08:24.657Z,0.20
2023-01-21T19:10:53.485Z,0.20
2023-01-21T19:13:22.232Z,0.20
2023-01-21T19:15:53.398Z,0.20
2023-01-21T19:18:21.922Z,0.20
2023-01-21T19:20:50.391Z,0.20
2023-01-21T19:23:19.518Z,0.30
2023-01-21T19:25:52.426Z,0.20
2023-01-21T19:28:21.166Z,0.30
2023-01-21T19:30:50.608Z,0.30
2023-01-21T19:33:20.201Z,0.20
2023-01-21T19:35:48.682Z,0.30
2023-01-21T19:38:19.799Z,0.20
2023-01-21T19:40:48.891Z,0.30
2023-01-21T19:43:18.703Z,0.30
2023-01-21T19:45:47.078Z,0.30
2023-01-21T19:48:17.500Z,0.30
2023-01-21T19:50:47.704Z,0.30
2023-01-21T19:53:17.412Z,0.30
2023-01-21T19:55:49.421Z,0.30
2023-01-21T19:58:20.772Z,0.20
2023-01-21T20:00:51.092Z,0.20
2023-01-21T20:03:20.821Z,0.20
2023-01-21T20:05:54.250Z,0.20
2023-01-21T20:08:25.215Z,0.20
2023-01-21T20:10:53.762Z,0.20
2023-01-21T20:13:22.923Z,0.20
2023-01-21T20:15:53.482Z,0.20
2023-01-21T20:18:26.090Z,0.20
2023-01-21T20:20:57.239Z,0.10
2023-01-21T20:23:26.966Z,0.20
2023-01-21T20:25:59.512Z,0.10
2023-01-21T20:28:35.129Z,0.10
2023-01-21T20:31:06.906Z,0.20
2023-01-21T20:33:36.688Z,0.20
2023-01-21T20:36:15.205Z,0.10
2023-01-21T20:38:43.519Z,0.10
2023-01-21T20:41:13.333Z,0.10
2023-01-21T20:43:41.885Z,0.10
2023-01-21T20:46:16.596Z,0.10
2023-01-21T20:48:45.859Z,0.10
2023-01-21T20:51:15.865Z,0.10
2023-01-21T20:53:44.603Z,0.10
2023-01-21T20:56:20.021Z,0.10
2023-01-21T20:58:48.839Z,0.10
2023-01-21T21:01:19.323Z,0.00
2023-01-21T21:03:48.168Z,0.00
2023-01-21T21:06:29.258Z,-0.10
2023-01-21T21:08:58.060Z,0.00
2023-01-21T21:11:29.577Z,-0.10
2023-01-21T21:13:58.642Z,-0.10
2023-01-21T21:16:32.123Z,-0.20
2023-01-21T21:19:00.674Z,-0.10
2023-01-21T21:21:30.442Z,-0.10
2023-01-21T21:23:58.793Z,-0.10
2023-01-21T21:26:30.248Z,-0.10
2023-01-21T21:29:01.142Z,-0.20
2023-01-21T21:31:32.452Z,-0.20
2023-01-21T21:34:02.330Z,-0.20
2023-01-21T21:36:32.292Z,-0.20
2023-01-21T21:39:02.192Z,-0.20
2023-01-21T21:41:48.567Z,-0.20
2023-01-21T21:44:18.878Z,-0.20
2023-01-21T21:47:05.060Z,-0.20
2023-01-21T21:49:34.688Z,-0.20
2023-01-21T21:52:05.035Z,-0.20
2023-01-21T21:54:37.055Z,-0.20
2023-01-21T21:57:11.132Z,-0.20
2023-01-21T21:59:39.796Z,-0.30
2023-01-21T22:02:11.188Z,-0.20
2023-01-21T22:04:39.442Z,-0.20
2023-01-21T22:07:09.387Z,-0.20
2023-01-21T22:09:42.975Z,-0.30
2023-01-21T22:12:11.805Z,-0.30
2023-01-21T22:14:40.176Z,-0.30
2023-01-21T22:17:09.003Z,-0.30
2023-01-21T22:19:38.076Z,-0.30
2023-01-21T22:22:06.839Z,-0.30
2023-01-21T22:24:39.828Z,-0.30
2023-01-21T22:27:08.679Z,-0.30
2023-01-21T22:29:37.760Z,-0.20
2023-01-21T22:32:08.133Z,-0.20
2023-01-21T22:34:36.606Z,-0.30
2023-01-21T22:37:05.078Z,-0.30
2023-01-21T22:39:33.563Z,-0.20
2023-01-21T22:42:05.077Z,-0.20
2023-01-21T22:44:36.053Z,-0.20
2023-01-21T22:47:04.630Z,-0.20
2023-01-21T22:49:33.272Z,-0.20
2023-01-21T22:52:01.661Z,-0.20
2023-01-21T22:54:30.226Z,-0.20
2023-01-21T22:56:58.387Z,-0.20
2023-01-21T22:59:28.352Z,-0.20
2023-01-21T23:01:56.571Z,-0.20
2023-01-21T23:04:24.925Z,-0.20
2023-01-21T23:06:54.976Z,-0.20
2023-01-21T23:09:23.284Z,-0.30
2023-01-21T23:11:52.699Z,-0.30
2023-01-21T23:14:21.521Z,-0.20
2023-01-21T23:16:55.330Z,-0.30
2023-01-21T23:19:23.830Z,-0.30
2023-01-21T23:21:52.371Z,-0.30
2023-01-21T23:24:20.681Z,-0.20
2023-01-21T23:26:48.906Z,-0.30
2023-01-21T23:29:17.186Z,-0.20
2023-01-21T23:31:46.065Z,-0.20
2023-01-21T23:34:16.189Z,-0.20
2023-01-21T23:36:44.492Z,-0.20
2023-01-21T23:39:13.208Z,-0.30
2023-01-21T23:41:41.706Z,-0.30
2023-01-21T23:44:10.925Z,-0.20
2023-01-21T23:46:39.270Z,-0.20
2023-01-21T23:49:08.070Z,-0.30
2023-01-21T23:51:38.120Z,-0.30
2023-01-21T23:54:06.739Z,-0.20
2023-01-21T23:56:35.364Z,-0.20
2023-01-21T23:59:03.651Z,-0.30
